createdAt,value
2018-12-16T00:01:17.825Z,4.83
2018-12-16T00:04:16.343Z,4.67
2018-12-16T00:07:13.663Z,4.73
2018-12-16T00:10:11.468Z,4.90
2018-12-16T00:13:10.793Z,4.60
2018-12-16T00:16:09.731Z,5.27
2018-12-16T00:19:06.993Z,5.23
2018-12-16T00:22:05.569Z,4.80
2018-12-16T00:25:03.965Z,4.53
2018-12-16T00:28:02.991Z,4.97
2018-12-16T00:31:01.608Z,5.87
2018-12-16T00:33:58.403Z,5.67
2018-12-16T00:36:56.622Z,4.77
2018-12-16T00:39:55.034Z,6.00
2018-12-16T00:42:52.683Z,5.20
2018-12-16T00:45:50.667Z,4.80
2018-12-16T00:48:48.435Z,4.90
2018-12-16T00:51:47.588Z,5.20
2018-12-16T00:54:45.687Z,5.00
2018-12-16T00:57:43.423Z,4.23
2018-12-16T01:00:41.733Z,6.10
2018-12-16T01:03:40.363Z,5.00
2018-12-16T01:06:38.008Z,5.40
2018-12-16T01:09:34.835Z,5.57
2018-12-16T01:12:32.910Z,5.27
2018-12-16T01:15:31.311Z,4.43
2018-12-16T01:18:29.020Z,5.03
2018-12-16T01:21:25.883Z,4.43
2018-12-16T01:24:24.630Z,4.60
2018-12-16T01:27:24.394Z,5.57
2018-12-16T01:30:22.373Z,5.13
2018-12-16T01:33:20.774Z,5.00
2018-12-16T01:36:19.281Z,6.20
2018-12-16T01:39:17.150Z,4.87
2018-12-16T01:42:15.553Z,4.83
2018-12-16T01:45:14.364Z,5.27
2018-12-16T01:48:13.078Z,5.67
2018-12-16T01:51:11.581Z,4.30
2018-12-16T01:54:10.214Z,5.33
2018-12-16T01:57:07.773Z,4.80
2018-12-16T02:00:05.471Z,4.93
2018-12-16T02:03:03.189Z,5.30
2018-12-16T02:06:02.319Z,5.23
2018-12-16T02:09:01.152Z,5.27
2018-12-16T02:11:58.412Z,6.53
2018-12-16T02:14:57.098Z,5.37
2018-12-16T02:17:54.750Z,4.70
2018-12-16T02:20:53.265Z,4.63
2018-12-16T02:23:51.622Z,6.00
2018-12-16T02:26:49.535Z,4.63
2018-12-16T02:29:48.134Z,4.60
2018-12-16T02:32:45.511Z,4.80
2018-12-16T02:35:43.609Z,4.30
2018-12-16T02:38:42.319Z,5.13
2018-12-16T02:41:41.027Z,4.40
2018-12-16T02:44:39.916Z,4.63
2018-12-16T02:47:47.714Z,5.67
2018-12-16T02:50:46.960Z,5.20
2018-12-16T02:53:45.677Z,4.20
2018-12-16T02:56:43.558Z,4.80
2018-12-16T02:59:41.729Z,4.20
2018-12-16T03:02:39.115Z,4.67
2018-12-16T03:05:37.176Z,4.40
2018-12-16T03:08:36.087Z,5.63
2018-12-16T03:11:33.868Z,4.63
2018-12-16T03:14:32.471Z,5.37
2018-12-16T03:17:30.991Z,4.60
2018-12-16T03:20:28.425Z,4.30
2018-12-16T03:23:27.245Z,4.90
2018-12-16T03:26:25.135Z,5.23
2018-12-16T03:29:23.392Z,5.43
2018-12-16T03:32:21.475Z,5.30
2018-12-16T03:35:20.421Z,4.77
2018-12-16T03:38:19.025Z,4.90
2018-12-16T03:41:16.799Z,5.83
2018-12-16T03:44:14.372Z,4.67
2018-12-16T03:47:13.384Z,4.53
2018-12-16T03:50:10.474Z,4.53
2018-12-16T03:53:07.924Z,4.53
2018-12-16T03:56:05.732Z,4.73
2018-12-16T03:59:10.115Z,4.93
2018-12-16T04:02:09.349Z,4.90
2018-12-16T04:05:06.625Z,4.50
2018-12-16T04:08:04.601Z,4.60
2018-12-16T04:11:01.447Z,5.63
2018-12-16T04:13:58.881Z,4.47
2018-12-16T04:16:56.950Z,4.30
2018-12-16T04:19:55.275Z,4.63
2018-12-16T04:22:53.541Z,4.53
2018-12-16T04:25:51.198Z,4.73
2018-12-16T04:28:49.835Z,4.37
2018-12-16T04:31:48.439Z,4.50
2018-12-16T04:34:46.091Z,4.53
2018-12-16T04:37:43.691Z,5.20
2018-12-16T04:40:41.026Z,4.43
2018-12-16T04:43:38.359Z,5.57
2018-12-16T04:46:35.578Z,4.23
2018-12-16T04:49:33.084Z,4.73
2018-12-16T04:52:31.082Z,4.30
2018-12-16T04:55:30.204Z,4.70
2018-12-16T04:58:29.009Z,4.23
2018-12-16T05:01:26.567Z,4.50
2018-12-16T05:04:24.897Z,4.33
2018-12-16T05:07:22.829Z,5.20
2018-12-16T05:10:26.330Z,5.37
2018-12-16T05:13:24.853Z,4.50
2018-12-16T05:16:23.994Z,4.67
2018-12-16T05:19:22.275Z,4.53
2018-12-16T05:22:20.882Z,4.77
2018-12-16T05:25:18.903Z,4.63
2018-12-16T05:28:17.889Z,4.53
2018-12-16T05:31:17.139Z,4.57
2018-12-16T05:34:15.033Z,4.17
2018-12-16T05:37:12.992Z,4.43
2018-12-16T05:40:11.611Z,4.67
2018-12-16T05:43:09.695Z,4.17
2018-12-16T05:46:07.775Z,4.27
2018-12-16T05:49:06.677Z,4.63
2018-12-16T05:52:04.961Z,4.97
2018-12-16T05:55:03.056Z,4.77
2018-12-16T05:58:01.661Z,4.73
2018-12-16T06:03:50.430Z,5.20
2018-12-16T06:06:48.291Z,4.43
2018-12-16T06:09:46.274Z,4.97
2018-12-16T06:12:43.869Z,5.40
2018-12-16T06:15:42.144Z,3.93
2018-12-16T06:18:40.008Z,4.50
2018-12-16T06:21:36.941Z,4.77
2018-12-16T06:24:35.760Z,4.20
2018-12-16T06:27:33.336Z,4.33
2018-12-16T06:30:32.135Z,4.70
2018-12-16T06:33:29.280Z,4.63
2018-12-16T06:36:27.051Z,4.40
2018-12-16T06:39:23.991Z,4.30
2018-12-16T06:42:22.806Z,5.17
2018-12-16T06:45:20.866Z,4.43
2018-12-16T06:48:20.145Z,5.47
2018-12-16T06:51:17.914Z,4.27
2018-12-16T06:54:15.487Z,4.73
2018-12-16T06:57:14.014Z,4.30
2018-12-16T07:00:11.859Z,4.07
2018-12-16T07:03:10.421Z,4.37
2018-12-16T07:06:08.443Z,5.57
2018-12-16T07:09:06.843Z,5.27
2018-12-16T07:12:05.865Z,5.33
2018-12-16T07:15:04.560Z,4.60
2018-12-16T07:18:02.034Z,4.73
2018-12-16T07:21:00.111Z,4.07
2018-12-16T07:23:57.606Z,4.77
2018-12-16T07:26:56.289Z,4.43
2018-12-16T07:29:55.724Z,4.27
2018-12-16T07:32:53.223Z,6.03
2018-12-16T07:35:51.808Z,5.13
2018-12-16T07:38:49.567Z,5.03
2018-12-16T07:41:47.137Z,5.03
2018-12-16T07:44:45.621Z,4.40
2018-12-16T07:47:44.251Z,4.53
2018-12-16T07:50:42.591Z,4.63
2018-12-16T07:53:40.309Z,5.53
2018-12-16T07:56:38.116Z,6.00
2018-12-16T07:59:35.643Z,6.07
2018-12-16T08:02:32.532Z,4.70
2018-12-16T08:05:30.771Z,4.70
2018-12-16T08:08:28.646Z,5.17
2018-12-16T08:11:26.414Z,4.67
2018-12-16T08:14:24.588Z,5.27
2018-12-16T08:17:22.560Z,6.03
2018-12-16T08:20:20.762Z,5.33
2018-12-16T08:23:17.936Z,6.00
2018-12-16T08:26:16.148Z,4.80
2018-12-16T08:29:14.363Z,5.17
2018-12-16T08:32:12.055Z,5.10
2018-12-16T08:35:09.830Z,5.33
2018-12-16T08:38:07.391Z,4.63
2018-12-16T08:41:06.135Z,5.37
2018-12-16T08:44:04.633Z,4.83
2018-12-16T08:47:02.361Z,4.67
2018-12-16T08:50:00.362Z,4.73
2018-12-16T08:52:59.176Z,5.53
2018-12-16T08:55:58.026Z,5.03
2018-12-16T08:58:55.766Z,5.50
2018-12-16T09:01:53.629Z,5.50
2018-12-16T09:04:51.218Z,5.23
2018-12-16T09:07:49.656Z,5.37
2018-12-16T09:10:47.496Z,5.60
2018-12-16T09:13:44.444Z,6.10
2018-12-16T09:16:42.725Z,5.17
2018-12-16T09:19:40.232Z,5.80
2018-12-16T09:22:37.520Z,6.07
2018-12-16T09:25:37.724Z,4.97
2018-12-16T09:28:36.611Z,6.63
2018-12-16T09:31:35.966Z,5.07
2018-12-16T09:34:34.251Z,5.47
2018-12-16T09:37:33.286Z,4.60
2018-12-16T09:40:30.248Z,4.60
2018-12-16T09:43:28.848Z,5.13
2018-12-16T09:46:26.793Z,4.83
2018-12-16T09:49:25.307Z,5.17
2018-12-16T09:52:23.642Z,6.67
2018-12-16T09:55:22.164Z,5.67
2018-12-16T09:58:18.747Z,5.13
2018-12-16T10:01:15.686Z,6.13
2018-12-16T10:04:13.890Z,7.27
2018-12-16T10:07:11.016Z,4.97
2018-12-16T10:10:07.788Z,6.87
2018-12-16T10:13:07.483Z,4.93
2018-12-16T10:16:06.303Z,5.53
2018-12-16T10:19:04.924Z,6.70
2018-12-16T10:22:02.474Z,4.83
2018-12-16T10:25:00.483Z,5.63
2018-12-16T10:27:59.631Z,5.93
2018-12-16T10:30:56.750Z,5.13
2018-12-16T10:33:53.910Z,6.33
2018-12-16T10:36:51.418Z,6.23
2018-12-16T10:39:49.194Z,6.00
2018-12-16T10:42:48.009Z,6.33
2018-12-16T10:45:45.856Z,5.57
2018-12-16T10:48:43.670Z,5.67
2018-12-16T10:51:41.531Z,6.07
2018-12-16T10:54:39.722Z,5.30
2018-12-16T10:57:38.328Z,5.37
2018-12-16T11:00:42.491Z,5.40
2018-12-16T11:03:40.255Z,6.60
2018-12-16T11:06:38.560Z,5.87
2018-12-16T11:09:36.847Z,5.47
2018-12-16T11:12:36.081Z,6.53
2018-12-16T11:15:33.108Z,6.00
2018-12-16T11:18:31.419Z,5.23
2018-12-16T11:21:29.117Z,4.80
2018-12-16T11:24:27.676Z,5.70
2018-12-16T11:27:25.481Z,6.20
2018-12-16T11:30:24.146Z,4.70
2018-12-16T11:33:21.831Z,4.83
2018-12-16T11:36:19.595Z,5.13
2018-12-16T11:39:18.531Z,5.67
2018-12-16T11:42:17.233Z,6.30
2018-12-16T11:45:15.870Z,5.27
2018-12-16T11:48:13.892Z,6.10
2018-12-16T11:51:11.917Z,6.60
2018-12-16T11:54:10.719Z,5.37
2018-12-16T11:57:07.830Z,5.87
2018-12-16T12:00:04.907Z,4.30
2018-12-16T12:03:04.153Z,5.40
2018-12-16T12:06:02.160Z,5.37
2018-12-16T12:08:59.500Z,5.53
2018-12-16T12:11:57.249Z,6.07
2018-12-16T12:14:55.343Z,5.60
2018-12-16T12:17:54.250Z,5.17
2018-12-16T12:20:51.398Z,5.63
2018-12-16T12:23:49.793Z,5.60
2018-12-16T12:26:47.149Z,4.83
2018-12-16T12:29:44.709Z,6.80
2018-12-16T12:32:42.341Z,4.87
2018-12-16T12:35:40.673Z,5.77
2018-12-16T12:38:38.051Z,5.17
2018-12-16T12:41:35.589Z,5.20
2018-12-16T12:44:32.959Z,6.00
2018-12-16T12:47:30.304Z,6.00
2018-12-16T12:50:27.702Z,5.13
2018-12-16T12:53:26.467Z,6.27
2018-12-16T12:56:23.405Z,5.93
2018-12-16T12:59:21.291Z,6.00
2018-12-16T13:02:19.362Z,6.03
2018-12-16T13:05:16.957Z,5.47
2018-12-16T13:08:15.536Z,6.10
2018-12-16T13:11:13.750Z,4.93
2018-12-16T13:14:10.591Z,6.20
2018-12-16T13:17:09.121Z,5.90
2018-12-16T13:20:07.038Z,5.60
2018-12-16T13:23:04.812Z,6.20
2018-12-16T13:26:08.873Z,6.33
2018-12-16T13:29:06.529Z,6.60
2018-12-16T13:32:03.767Z,5.43
2018-12-16T13:35:02.079Z,5.43
2018-12-16T13:38:01.397Z,5.37
2018-12-16T13:40:58.753Z,4.83
2018-12-16T13:43:56.542Z,5.60
2018-12-16T13:46:55.462Z,4.90
2018-12-16T13:49:52.277Z,5.77
2018-12-16T13:52:50.051Z,4.63
2018-12-16T13:55:48.064Z,5.17
2018-12-16T13:58:46.346Z,4.77
2018-12-16T14:01:45.037Z,5.33
2018-12-16T14:04:42.391Z,5.30
2018-12-16T14:07:39.536Z,4.63
2018-12-16T14:10:38.062Z,5.73
2018-12-16T14:13:35.998Z,5.37
2018-12-16T14:16:34.621Z,5.20
2018-12-16T14:19:31.879Z,4.83
2018-12-16T14:22:29.645Z,5.93
2018-12-16T14:25:27.417Z,5.00
2018-12-16T14:28:25.506Z,5.77
2018-12-16T14:31:23.087Z,4.73
2018-12-16T14:34:21.897Z,5.03
2018-12-16T14:37:19.548Z,5.47
2018-12-16T14:40:17.098Z,5.57
2018-12-16T14:43:15.718Z,4.87
2018-12-16T14:46:12.586Z,6.80
2018-12-16T14:49:10.077Z,4.83
2018-12-16T14:52:08.802Z,4.63
2018-12-16T14:55:06.809Z,5.30
2018-12-16T14:58:05.535Z,4.90
2018-12-16T15:01:04.548Z,5.67
2018-12-16T15:04:00.829Z,6.17
2018-12-16T15:06:59.354Z,7.10
2018-12-16T15:09:57.876Z,5.57
2018-12-16T15:12:56.168Z,5.63
2018-12-16T15:15:55.923Z,6.33
2018-12-16T15:18:54.619Z,7.03
2018-12-16T15:21:52.626Z,5.33
2018-12-16T15:24:49.994Z,5.63
2018-12-16T15:27:47.939Z,5.67
2018-12-16T15:30:45.301Z,7.10
2018-12-16T15:33:44.191Z,6.60
2018-12-16T15:36:41.249Z,5.27
2018-12-16T15:39:39.247Z,5.03
2018-12-16T15:42:36.193Z,5.23
2018-12-16T15:45:33.866Z,5.60
2018-12-16T15:48:32.127Z,4.47
2018-12-16T15:51:30.126Z,5.47
2018-12-16T15:54:27.044Z,5.33
2018-12-16T15:57:26.069Z,5.07
2018-12-16T16:00:23.933Z,4.80
2018-12-16T16:03:21.194Z,5.73
2018-12-16T16:06:20.443Z,5.70
2018-12-16T16:09:18.036Z,5.23
2018-12-16T16:12:17.554Z,5.73
2018-12-16T16:15:14.577Z,4.87
2018-12-16T16:18:13.187Z,4.53
2018-12-16T16:21:10.205Z,5.40
2018-12-16T16:24:08.361Z,5.57
2018-12-16T16:27:06.626Z,7.00
2018-12-16T16:30:05.188Z,4.90
2018-12-16T16:33:02.895Z,5.33
2018-12-16T16:36:01.275Z,5.00
2018-12-16T16:38:58.425Z,5.67
2018-12-16T16:41:55.358Z,5.00
2018-12-16T16:44:52.924Z,4.90
2018-12-16T16:47:50.694Z,5.40
2018-12-16T16:50:48.083Z,6.20
2018-12-16T16:53:46.887Z,5.73
2018-12-16T16:56:44.219Z,5.17
2018-12-16T16:59:41.990Z,5.33
2018-12-16T17:02:39.170Z,5.37
2018-12-16T17:05:37.325Z,5.43
2018-12-16T17:08:35.638Z,5.57
2018-12-16T17:11:33.525Z,6.67
2018-12-16T17:14:31.466Z,5.07
2018-12-16T17:17:29.954Z,6.70
2018-12-16T17:20:28.691Z,4.93
2018-12-16T17:23:26.061Z,6.67
2018-12-16T17:26:29.877Z,5.47
2018-12-16T17:29:22.920Z,5.17
2018-12-16T17:32:20.737Z,5.50
2018-12-16T17:35:18.269Z,6.20
2018-12-16T17:38:15.879Z,6.57
2018-12-16T17:41:13.510Z,6.23
2018-12-16T17:44:11.701Z,6.23
2018-12-16T17:47:08.934Z,6.00
2018-12-16T17:50:06.420Z,6.67
2018-12-16T17:53:03.551Z,4.97
2018-12-16T17:56:01.655Z,6.37
2018-12-16T17:59:00.469Z,5.77
2018-12-16T18:01:58.121Z,5.27
2018-12-16T18:04:56.936Z,6.70
2018-12-16T18:07:55.586Z,7.17
2018-12-16T18:10:52.763Z,6.27
2018-12-16T18:13:50.581Z,5.13
2018-12-16T18:16:48.478Z,6.10
2018-12-16T18:19:46.555Z,6.13
2018-12-16T18:22:43.776Z,6.97
2018-12-16T18:25:41.758Z,7.50
2018-12-16T18:28:40.364Z,6.23
2018-12-16T18:31:37.603Z,6.17
2018-12-16T18:34:36.238Z,7.07
2018-12-16T18:37:34.098Z,7.23
2018-12-16T18:40:31.662Z,6.37
2018-12-16T18:43:30.270Z,5.57
2018-12-16T18:46:28.213Z,5.57
2018-12-16T18:49:26.350Z,6.57
2018-12-16T18:52:25.044Z,6.33
2018-12-16T18:55:24.158Z,7.03
2018-12-16T18:58:22.674Z,6.43
2018-12-16T19:01:21.414Z,6.93
2018-12-16T19:04:18.756Z,7.43
2018-12-16T19:07:16.826Z,5.93
2018-12-16T19:10:13.812Z,7.17
2018-12-16T19:13:11.841Z,6.63
2018-12-16T19:16:10.262Z,6.77
2018-12-16T19:19:07.683Z,7.23
2018-12-16T19:22:06.350Z,7.43
2018-12-16T19:25:03.745Z,6.27
2018-12-16T19:28:01.765Z,5.83
2018-12-16T19:30:59.116Z,6.57
2018-12-16T19:33:56.773Z,7.83
2018-12-16T19:36:54.760Z,6.57
2018-12-16T19:39:52.525Z,7.83
2018-12-16T19:42:51.237Z,7.40
2018-12-16T19:45:48.608Z,7.40
2018-12-16T19:48:45.838Z,6.33
2018-12-16T19:51:43.402Z,7.77
2018-12-16T19:54:41.920Z,7.07
2018-12-16T19:57:39.990Z,6.43
2018-12-16T20:00:37.468Z,6.83
2018-12-16T20:03:36.804Z,6.77
2018-12-16T20:06:40.410Z,6.20
2018-12-16T20:09:37.268Z,6.80
2018-12-16T20:12:35.448Z,6.57
2018-12-16T20:15:32.518Z,6.77
2018-12-16T20:18:29.615Z,6.93
2018-12-16T20:21:28.733Z,6.93
2018-12-16T20:24:27.270Z,7.27
2018-12-16T20:27:25.856Z,6.87
2018-12-16T20:30:24.690Z,6.50
2018-12-16T20:33:22.282Z,7.00
2018-12-16T20:36:21.472Z,6.37
2018-12-16T20:39:19.042Z,5.57
2018-12-16T20:42:17.641Z,5.70
2018-12-16T20:45:15.029Z,6.67
2018-12-16T20:48:12.970Z,6.53
2018-12-16T20:51:10.263Z,6.00
2018-12-16T20:54:08.304Z,7.63
2018-12-16T20:57:06.079Z,6.43
2018-12-16T21:00:03.568Z,5.90
2018-12-16T21:03:00.995Z,7.03
2018-12-16T21:06:00.106Z,6.00
2018-12-16T21:08:57.440Z,6.90
2018-12-16T21:12:01.619Z,5.87
2018-12-16T21:15:05.151Z,6.17
2018-12-16T21:18:09.403Z,5.90
2018-12-16T21:21:10.272Z,7.00
2018-12-16T21:24:08.375Z,7.33
2018-12-16T21:27:05.945Z,5.27
2018-12-16T21:30:05.054Z,5.63
2018-12-16T21:33:02.848Z,6.30
2018-12-16T21:35:59.804Z,6.47
2018-12-16T21:38:59.928Z,6.63
2018-12-16T21:41:58.156Z,6.07
2018-12-16T21:44:57.490Z,5.90
2018-12-16T21:47:54.385Z,7.33
2018-12-16T21:50:52.530Z,6.77
2018-12-16T21:53:50.686Z,7.20
2018-12-16T21:56:47.834Z,6.17
2018-12-16T21:59:45.931Z,7.60
2018-12-16T22:02:43.587Z,8.77
2018-12-16T22:05:41.570Z,6.13
2018-12-16T22:08:39.965Z,6.50
2018-12-16T22:11:39.317Z,6.53
2018-12-16T22:14:36.673Z,7.20
2018-12-16T22:17:34.664Z,8.73
2018-12-16T22:20:32.113Z,8.93
2018-12-16T22:23:30.743Z,6.57
2018-12-16T22:26:30.485Z,6.73
2018-12-16T22:29:28.546Z,7.40
2018-12-16T22:32:25.980Z,6.43
2018-12-16T22:35:23.881Z,7.30
2018-12-16T22:38:22.141Z,7.20
2018-12-16T22:41:21.213Z,7.53
2018-12-16T22:44:18.483Z,7.63
2018-12-16T22:47:16.223Z,7.80
2018-12-16T22:50:13.380Z,7.63
2018-12-16T22:53:11.553Z,7.07
2018-12-16T22:56:09.535Z,7.30
2018-12-16T22:59:06.477Z,6.57
2018-12-16T23:02:04.159Z,6.77
2018-12-16T23:05:01.215Z,6.40
2018-12-16T23:07:59.623Z,6.90
2018-12-16T23:10:57.598Z,5.70
2018-12-16T23:13:57.207Z,5.83
2018-12-16T23:16:55.102Z,6.73
2018-12-16T23:19:54.213Z,7.03
2018-12-16T23:22:52.021Z,6.53
2018-12-16T23:25:50.805Z,6.70
2018-12-16T23:28:48.780Z,5.67
2018-12-16T23:31:46.066Z,7.87
2018-12-16T23:34:44.742Z,5.60
2018-12-16T23:37:42.308Z,7.97
2018-12-16T23:40:41.124Z,6.63
2018-12-16T23:43:38.686Z,6.60
2018-12-16T23:46:37.298Z,7.17
2018-12-16T23:49:34.435Z,7.13
2018-12-16T23:52:33.580Z,7.00
2018-12-16T23:55:30.521Z,5.63
2018-12-16T23:58:28.717Z,6.70
